createdAt,value
2018-02-23T00:03:17.610Z,2.73
2018-02-23T00:08:20.135Z,2.60
2018-02-23T00:13:22.827Z,2.63
2018-02-23T00:18:25.584Z,2.80
2018-02-23T00:23:28.173Z,2.73
2018-02-23T00:28:30.736Z,2.23
2018-02-23T00:33:33.704Z,1.90
2018-02-23T00:38:36.245Z,2.67
2018-02-23T00:43:39.214Z,2.60
2018-02-23T00:48:42.686Z,2.07
2018-02-23T00:53:45.527Z,1.87
2018-02-23T00:58:48.958Z,2.47
2018-02-23T01:03:52.267Z,2.30
2018-02-23T01:08:54.799Z,2.10
2018-02-23T01:13:57.531Z,2.00
2018-02-23T01:19:00.470Z,2.10
2018-02-23T01:24:03.004Z,1.93
2018-02-23T01:29:05.690Z,2.10
2018-02-23T01:34:08.336Z,2.37
2018-02-23T01:39:11.736Z,2.03
2018-02-23T01:44:14.385Z,2.20
2018-02-23T01:49:16.928Z,2.00
2018-02-23T01:54:19.432Z,2.10
2018-02-23T01:59:22.016Z,2.10
2018-02-23T02:04:24.849Z,2.40
2018-02-23T02:09:27.377Z,2.10
2018-02-23T02:14:30.170Z,1.70
2018-02-23T02:19:32.917Z,2.20
2018-02-23T02:24:37.686Z,2.20
2018-02-23T02:29:40.326Z,1.97
2018-02-23T02:34:42.828Z,1.77
2018-02-23T02:39:45.334Z,2.20
2018-02-23T02:44:47.887Z,1.93
2018-02-23T02:49:50.393Z,1.87
2018-02-23T02:54:53.389Z,2.10
2018-02-23T02:59:55.917Z,1.90
2018-02-23T03:04:58.453Z,2.33
2018-02-23T03:10:01.076Z,2.00
2018-02-23T03:15:03.899Z,2.50
2018-02-23T03:20:06.442Z,1.93
2018-02-23T03:25:08.986Z,2.30
2018-02-23T03:30:11.939Z,1.90
2018-02-23T03:35:14.508Z,2.17
2018-02-23T03:40:17.016Z,2.20
2018-02-23T03:45:20.020Z,1.90
2018-02-23T03:50:22.928Z,2.00
2018-02-23T03:55:25.513Z,2.40
2018-02-23T04:00:28.076Z,1.97
2018-02-23T04:05:31.444Z,2.03
2018-02-23T04:10:33.972Z,2.30
2018-02-23T04:15:36.540Z,1.77
2018-02-23T04:20:39.065Z,1.73
2018-02-23T04:25:41.880Z,2.07
2018-02-23T04:30:44.975Z,1.90
2018-02-23T04:35:47.903Z,1.80
2018-02-23T04:40:50.443Z,1.97
2018-02-23T04:45:52.972Z,1.70
2018-02-23T04:50:55.618Z,2.13
2018-02-23T04:55:58.180Z,2.03
2018-02-23T05:01:00.721Z,1.80
2018-02-23T05:06:03.229Z,2.30
2018-02-23T05:11:05.762Z,2.73
2018-02-23T05:16:08.307Z,2.20
2018-02-23T05:21:10.889Z,2.13
2018-02-23T05:26:13.687Z,2.10
2018-02-23T05:31:16.231Z,1.90
2018-02-23T05:36:18.771Z,2.33
2018-02-23T05:41:21.349Z,2.53
2018-02-23T05:46:24.069Z,2.93
2018-02-23T05:51:26.865Z,2.70
2018-02-23T05:56:29.410Z,2.47
2018-02-23T06:01:32.778Z,2.60
2018-02-23T06:06:35.343Z,2.27
2018-02-23T06:11:38.661Z,2.43
2018-02-23T06:16:41.328Z,2.90
2018-02-23T06:21:44.025Z,3.20
2018-02-23T06:26:46.548Z,3.60
2018-02-23T06:31:49.154Z,4.03
2018-02-23T06:36:51.924Z,3.80
2018-02-23T06:41:54.665Z,4.50
2018-02-23T06:47:02.916Z,4.30
2018-02-23T06:52:05.510Z,4.70
2018-02-23T06:57:08.129Z,3.90
2018-02-23T07:02:10.994Z,3.90
2018-02-23T07:07:13.984Z,4.50
2018-02-23T07:12:17.555Z,4.30
2018-02-23T07:17:20.328Z,4.70
2018-02-23T07:22:23.801Z,4.20
2018-02-23T07:27:26.602Z,4.67
2018-02-23T07:32:29.233Z,5.30
2018-02-23T07:37:32.445Z,4.20
2018-02-23T07:42:35.103Z,4.90
2018-02-23T07:47:37.719Z,4.60
2018-02-23T07:52:40.557Z,5.10
2018-02-23T07:57:43.290Z,5.10
2018-02-23T08:02:46.970Z,4.57
2018-02-23T08:07:49.841Z,4.63
2018-02-23T08:12:52.470Z,4.50
2018-02-23T08:17:55.044Z,4.43
2018-02-23T08:22:57.746Z,4.43
2018-02-23T08:28:00.507Z,4.67
2018-02-23T08:33:03.237Z,3.97
2018-02-23T08:38:06.203Z,5.13
2018-02-23T08:43:08.800Z,4.90
2018-02-23T08:48:11.512Z,4.77
2018-02-23T08:53:14.066Z,4.40
2018-02-23T08:58:17.388Z,4.83
2018-02-23T09:03:19.973Z,4.67
2018-02-23T09:08:22.568Z,4.33
2018-02-23T09:13:26.285Z,4.97
2018-02-23T09:18:29.596Z,4.90
2018-02-23T09:23:32.089Z,5.10
2018-02-23T09:28:34.912Z,5.20
2018-02-23T09:33:50.141Z,5.10
2018-02-23T09:38:52.651Z,5.43
2018-02-23T09:43:55.177Z,5.20
2018-02-23T09:48:57.743Z,4.90
2018-02-23T09:54:01.054Z,5.00
2018-02-23T09:59:03.579Z,5.23
2018-02-23T10:04:06.883Z,5.50
2018-02-23T10:09:10.249Z,4.80
2018-02-23T10:14:12.758Z,5.10
2018-02-23T10:19:15.269Z,4.50
2018-02-23T10:24:17.827Z,4.60
2018-02-23T10:29:20.376Z,5.00
2018-02-23T10:34:22.982Z,5.13
2018-02-23T10:39:25.525Z,4.90
2018-02-23T10:44:28.047Z,4.70
2018-02-23T10:49:30.603Z,5.27
2018-02-23T10:54:33.156Z,5.30
2018-02-23T10:59:35.762Z,5.10
2018-02-23T11:04:38.295Z,5.23
2018-02-23T11:09:40.883Z,4.67
2018-02-23T11:14:43.422Z,4.97
2018-02-23T11:19:47.250Z,4.33
2018-02-23T11:24:49.787Z,4.90
2018-02-23T11:29:52.282Z,4.60
2018-02-23T11:34:54.795Z,5.03
2018-02-23T11:39:57.519Z,4.80
2018-02-23T11:45:00.932Z,4.40
2018-02-23T11:50:03.606Z,4.53
2018-02-23T11:55:06.150Z,4.60
2018-02-23T12:00:08.826Z,4.67
2018-02-23T12:05:12.132Z,4.90
2018-02-23T12:10:14.769Z,5.17
2018-02-23T12:15:17.261Z,5.53
2018-02-23T12:20:19.880Z,4.80
2018-02-23T12:25:22.600Z,4.90
2018-02-23T12:30:25.146Z,6.13
2018-02-23T12:35:27.966Z,4.43
2018-02-23T12:40:31.291Z,5.07
2018-02-23T12:45:33.879Z,5.10
2018-02-23T12:50:36.443Z,5.50
2018-02-23T12:55:39.003Z,4.63
2018-02-23T13:00:43.118Z,5.00
2018-02-23T13:05:46.072Z,4.93
2018-02-23T13:10:48.910Z,4.60
2018-02-23T13:15:51.499Z,4.70
2018-02-23T13:20:54.876Z,4.67
2018-02-23T13:25:57.872Z,5.77
2018-02-23T13:31:00.471Z,5.30
2018-02-23T13:36:03.020Z,4.97
2018-02-23T13:41:23.255Z,4.90
2018-02-23T13:46:26.052Z,5.50
2018-02-23T13:51:29.370Z,4.83
2018-02-23T13:56:32.136Z,4.70
2018-02-23T14:01:34.725Z,4.63
2018-02-23T14:06:37.360Z,4.77
2018-02-23T14:11:40.023Z,4.67
2018-02-23T14:16:42.674Z,5.00
2018-02-23T14:21:45.409Z,5.10
2018-02-23T14:26:48.114Z,5.13
2018-02-23T14:31:50.640Z,5.30
2018-02-23T14:36:53.384Z,4.60
2018-02-23T14:41:56.324Z,4.67
2018-02-23T14:46:58.864Z,5.17
2018-02-23T14:52:01.551Z,4.57
2018-02-23T14:57:04.115Z,4.27
2018-02-23T15:02:06.643Z,4.20
2018-02-23T15:07:09.325Z,4.97
2018-02-23T15:12:12.816Z,4.60
2018-02-23T15:17:15.419Z,4.57
2018-02-23T15:22:18.443Z,4.70
2018-02-23T15:27:21.103Z,4.90
2018-02-23T15:32:39.152Z,4.73
2018-02-23T15:37:41.785Z,5.00
2018-02-23T15:42:45.130Z,4.70
2018-02-23T15:47:53.404Z,4.57
2018-02-23T15:52:56.088Z,4.80
2018-02-23T15:58:09.344Z,4.30
2018-02-23T16:03:12.175Z,4.57
2018-02-23T16:08:14.822Z,4.63
2018-02-23T16:13:17.776Z,4.70
2018-02-23T16:18:20.775Z,4.90
2018-02-23T16:23:24.377Z,4.10
2018-02-23T16:28:26.905Z,5.03
2018-02-23T16:33:29.467Z,4.70
2018-02-23T16:38:32.947Z,4.00
2018-02-23T16:43:35.505Z,4.90
2018-02-23T16:48:38.311Z,4.60
2018-02-23T16:53:41.636Z,4.30
2018-02-23T16:58:44.244Z,3.93
2018-02-23T17:03:48.295Z,4.60
2018-02-23T17:08:50.917Z,4.60
2018-02-23T17:13:53.466Z,4.23
2018-02-23T17:18:56.177Z,4.10
2018-02-23T17:23:58.745Z,4.20
2018-02-23T17:29:01.349Z,4.90
2018-02-23T17:34:04.657Z,4.60
2018-02-23T17:39:07.279Z,4.60
2018-02-23T17:44:10.010Z,4.00
2018-02-23T17:49:13.325Z,4.70
2018-02-23T17:54:16.647Z,4.80
2018-02-23T17:59:19.367Z,4.80
2018-02-23T18:04:22.461Z,4.83
2018-02-23T18:09:26.093Z,4.30
2018-02-23T18:14:28.970Z,4.60
2018-02-23T18:19:32.330Z,4.93
2018-02-23T18:24:35.667Z,4.37
2018-02-23T18:29:38.254Z,4.00
2018-02-23T18:34:40.828Z,4.40
2018-02-23T18:39:43.781Z,4.57
2018-02-23T18:44:46.519Z,4.70
2018-02-23T18:49:49.332Z,4.60
2018-02-23T18:54:54.253Z,4.07
2018-02-23T18:59:54.841Z,4.67
2018-02-23T19:04:58.226Z,4.10
2018-02-23T19:10:00.774Z,4.33
2018-02-23T19:15:03.367Z,3.70
2018-02-23T19:20:06.106Z,4.10
2018-02-23T19:25:08.711Z,4.40
2018-02-23T19:30:11.362Z,4.40
2018-02-23T19:35:14.210Z,4.77
2018-02-23T19:40:17.348Z,4.03
2018-02-23T19:45:19.911Z,4.00
2018-02-23T19:50:22.430Z,4.73
2018-02-23T19:55:24.987Z,4.50
2018-02-23T20:00:27.536Z,4.90
2018-02-23T20:05:30.767Z,4.27
2018-02-23T20:10:33.413Z,4.73
2018-02-23T20:15:35.976Z,4.03
2018-02-23T20:20:38.726Z,4.47
2018-02-23T20:25:41.353Z,5.00
2018-02-23T20:30:44.815Z,4.20
2018-02-23T20:35:47.379Z,4.30
2018-02-23T20:40:50.263Z,4.57
2018-02-23T20:45:53.654Z,4.40
2018-02-23T20:50:58.002Z,3.97
2018-02-23T20:56:01.547Z,4.17
2018-02-23T21:01:04.126Z,4.80
2018-02-23T21:06:06.671Z,4.40
2018-02-23T21:11:09.367Z,4.77
2018-02-23T21:16:12.425Z,4.17
2018-02-23T21:21:14.995Z,4.50
2018-02-23T21:26:19.266Z,4.20
2018-02-23T21:31:22.126Z,3.87
2018-02-23T21:36:25.716Z,4.60
2018-02-23T21:41:28.286Z,4.20
2018-02-23T21:46:31.145Z,4.07
2018-02-23T21:51:33.677Z,3.53
2018-02-23T21:56:36.444Z,4.30
2018-02-23T22:01:39.218Z,4.20
2018-02-23T22:06:42.888Z,4.00
2018-02-23T22:11:45.413Z,3.97
2018-02-23T22:16:47.967Z,4.37
2018-02-23T22:21:50.543Z,4.53
2018-02-23T22:26:53.236Z,3.60
2018-02-23T22:31:55.906Z,3.80
2018-02-23T22:36:58.453Z,3.73
2018-02-23T22:42:00.995Z,4.43
2018-02-23T22:47:03.803Z,4.30
2018-02-23T22:52:06.531Z,4.23
2018-02-23T22:57:10.122Z,3.83
2018-02-23T23:02:13.027Z,4.20
2018-02-23T23:07:15.683Z,4.00
2018-02-23T23:12:18.231Z,4.10
2018-02-23T23:17:20.908Z,4.10
2018-02-23T23:22:23.866Z,4.67
2018-02-23T23:27:26.444Z,4.37
2018-02-23T23:32:29.039Z,4.43
2018-02-23T23:37:31.613Z,4.40
2018-02-23T23:42:34.186Z,4.40
2018-02-23T23:47:36.812Z,5.00
2018-02-23T23:52:40.117Z,4.00
2018-02-23T23:57:42.772Z,3.77
